Time;durP1;ratioP1;P1;durP2;ratioP2;P2;SDS_P1;SDS_P2;PMS_P1;PMS_P2;Temp;Humidity;BMP_temperature;BMP_pressure;BME280_temperature;BME280_humidity;BME280_pressure;Samples;Min_cycle;Max_cycle;Signal;HPM_P1;HPM_P2
2022/09/24 00:00:03;;;;;;;0.40;0.20;;;;;;;8.80;100.00;96331.84;5002142;28;20050;-76
2022/09/24 00:02:49;;;;;;;0.10;0.10;;;;;;;8.76;100.00;96328.84;4996567;28;20042;-76
2022/09/24 00:05:38;;;;;;;0.00;0.00;;;;;;;8.87;100.00;96328.00;5000516;28;20525;-76
2022/09/24 00:08:24;;;;;;;0.10;0.10;;;;;;;8.93;100.00;96326.19;4998824;28;20049;-76
2022/09/24 00:11:11;;;;;;;0.10;0.10;;;;;;;8.93;100.00;96321.66;4999267;28;20089;-76
2022/09/24 00:13:58;;;;;;;0.00;0.00;;;;;;;9.00;100.00;96318.84;4992903;28;20063;-75
2022/09/24 00:16:44;;;;;;;0.00;0.00;;;;;;;8.99;100.00;96327.09;4982918;28;20046;-76
2022/09/24 00:19:30;;;;;;;0.10;0.10;;;;;;;8.91;100.00;96313.09;5002344;28;20200;-76
2022/09/24 00:22:21;;;;;;;0.10;0.10;;;;;;;9.01;100.00;96314.31;4996970;28;20377;-76
2022/09/24 00:28:13;;;;;;;0.00;0.00;;;;;;;9.10;100.00;96312.84;4999531;28;20267;-76
2022/09/24 00:31:05;;;;;;;0.00;0.00;;;;;;;9.17;100.00;96325.00;4996642;28;20050;-76
2022/09/24 00:33:53;;;;;;;0.10;0.10;;;;;;;9.23;100.00;96311.72;4999455;28;20042;-76
2022/09/24 00:36:39;;;;;;;0.10;0.10;;;;;;;9.28;100.00;96312.63;4997602;28;20050;-76
2022/09/24 00:39:25;;;;;;;0.00;0.00;;;;;;;9.28;100.00;96317.16;4999678;28;20077;-75
2022/09/24 00:42:12;;;;;;;0.00;0.00;;;;;;;9.15;100.00;96324.44;4996224;28;20045;-76
2022/09/24 00:44:58;;;;;;;0.10;0.10;;;;;;;9.08;100.00;96313.09;4999751;28;20037;-75
2022/09/24 00:47:44;;;;;;;0.10;0.10;;;;;;;9.09;100.00;96306.72;4995409;28;20463;-75
2022/09/24 00:50:33;;;;;;;0.10;0.10;;;;;;;9.09;100.00;96305.91;5001696;28;20539;-75
2022/09/24 00:53:27;;;;;;;0.10;0.10;;;;;;;9.04;100.00;96306.66;4999725;28;20128;-75
2022/09/24 00:56:15;;;;;;;0.08;0.08;;;;;;;9.06;100.00;96304.53;4997161;28;20332;-75
2022/09/24 00:59:03;;;;;;;0.10;0.10;;;;;;;9.08;100.00;96301.63;4998355;28;20254;-75
2022/09/24 01:01:56;;;;;;;0.10;0.10;;;;;;;9.03;100.00;96302.38;4995384;28;20084;-75
2022/09/24 01:04:42;;;;;;;0.08;0.08;;;;;;;9.01;100.00;96300.97;4998001;28;20502;-75
2022/09/24 01:07:28;;;;;;;0.08;0.08;;;;;;;8.96;100.00;96300.91;4995494;28;20430;-75
2022/09/24 01:10:46;;;;;;;0.10;0.10;;;;;;;8.87;100.00;96298.63;4998621;28;20459;-75
2022/09/24 01:14:02;;;;;;;0.10;0.10;;;;;;;8.80;100.00;96297.16;5000503;28;20026;-75
2022/09/24 01:17:10;;;;;;;0.15;0.10;;;;;;;8.78;100.00;96294.72;4994733;28;20038;-76
2022/09/24 01:20:32;;;;;;;0.10;0.10;;;;;;;8.71;100.00;96283.38;4997246;28;20290;-75
2022/09/24 01:23:36;;;;;;;0.10;0.10;;;;;;;8.67;100.00;96278.78;4993446;28;20038;-75
2022/09/24 01:26:35;;;;;;;0.00;0.00;;;;;;;8.62;100.00;96274.97;4996126;28;20142;-75
2022/09/24 01:29:30;;;;;;;0.10;0.10;;;;;;;8.57;100.00;96271.44;4999020;28;20481;-75
2022/09/24 01:32:32;;;;;;;0.00;0.00;;;;;;;8.35;100.00;96255.28;4997674;28;20037;-75
2022/09/24 01:35:32;;;;;;;0.10;0.10;;;;;;;8.22;100.00;96250.22;4998392;28;20033;-75
2022/09/24 01:38:33;;;;;;;0.00;0.00;;;;;;;7.97;100.00;96253.22;4994013;28;20042;-75
2022/09/24 01:41:21;;;;;;;0.10;0.10;;;;;;;8.02;100.00;96254.13;4995739;28;20026;-75
2022/09/24 01:44:08;;;;;;;0.10;0.10;;;;;;;7.97;100.00;96253.22;4996254;28;20045;-75
2022/09/24 01:46:54;;;;;;;0.10;0.10;;;;;;;7.98;100.00;96247.63;4994845;28;20421;-75
2022/09/24 01:49:40;;;;;;;0.00;0.00;;;;;;;8.04;100.00;96249.38;4996333;28;20743;-75
2022/09/24 01:52:32;;;;;;;0.10;0.10;;;;;;;7.98;100.00;96252.97;4994937;28;20517;-75
2022/09/24 01:55:24;;;;;;;0.10;0.10;;;;;;;8.01;100.00;96251.66;4994909;28;20571;-75
2022/09/24 01:58:15;;;;;;;0.10;0.10;;;;;;;8.01;100.00;96249.00;4995607;28;20076;-75
2022/09/24 02:01:06;;;;;;;;;;;;;;;7.95;100.00;96247.31;4969713;28;20244;-74
2022/09/24 02:03:57;;;;;;;0.10;0.10;;;;;;;7.90;100.00;96232.03;4995813;28;19952;-75
2022/09/24 02:07:10;;;;;;;0.10;0.10;;;;;;;7.87;100.00;96234.38;4995104;28;20543;-75
2022/09/24 02:09:56;;;;;;;0.00;0.00;;;;;;;7.86;100.00;96227.41;4991691;28;20037;-75
2022/09/24 02:12:46;;;;;;;0.10;0.10;;;;;;;7.74;100.00;96235.44;5014881;28;20230;-75
2022/09/24 02:15:36;;;;;;;0.10;0.10;;;;;;;7.56;100.00;96230.28;5018869;28;20084;-75
2022/09/24 02:18:28;;;;;;;0.10;0.10;;;;;;;7.55;100.00;96232.13;5016787;28;20041;-75
2022/09/24 02:21:17;;;;;;;0.20;0.10;;;;;;;7.60;100.00;96231.41;5015403;28;20092;-75
2022/09/24 02:24:14;;;;;;;0.10;0.10;;;;;;;7.64;100.00;96216.59;4998053;28;20531;-75
2022/09/24 02:27:00;;;;;;;0.10;0.10;;;;;;;7.53;100.00;96223.53;5012526;28;20056;-75
2022/09/24 02:29:46;;;;;;;0.00;0.00;;;;;;;7.54;100.00;96225.16;5018896;28;20501;-75
2022/09/24 02:32:35;;;;;;;0.00;0.00;;;;;;;7.49;100.00;96222.41;5013531;28;20261;-74
2022/09/24 02:35:22;;;;;;;0.10;0.10;;;;;;;7.54;100.00;96230.47;5012569;28;20075;-75
2022/09/24 02:38:15;;;;;;;0.10;0.10;;;;;;;7.45;100.00;96231.91;5014165;28;20501;-75
2022/09/24 02:41:01;;;;;;;0.10;0.10;;;;;;;7.52;100.00;96227.25;5010242;28;20049;-75
2022/09/24 02:43:46;;;;;;;0.10;0.10;;;;;;;7.57;100.00;96223.91;5015126;28;20045;-75
2022/09/24 02:46:32;;;;;;;0.10;0.10;;;;;;;7.50;100.00;96219.50;5017293;28;20514;-75
2022/09/24 02:49:18;;;;;;;0.10;0.10;;;;;;;7.45;100.00;96213.25;5018497;28;20041;-75
2022/09/24 02:52:04;;;;;;;0.10;0.10;;;;;;;7.41;100.00;96204.13;5013748;28;20504;-75
2022/09/24 02:54:50;;;;;;;0.10;0.10;;;;;;;7.30;100.00;96208.41;5016981;28;20535;-75
2022/09/24 02:57:36;;;;;;;0.10;0.10;;;;;;;7.26;100.00;96204.63;5015458;28;20049;-75
2022/09/24 03:00:22;;;;;;;0.10;0.10;;;;;;;7.32;100.00;96201.03;5017061;28;20128;-75
2022/09/24 03:03:08;;;;;;;0.00;0.00;;;;;;;7.30;100.00;96208.41;5015458;28;20033;-75
2022/09/24 03:05:53;;;;;;;0.10;0.10;;;;;;;7.35;100.00;96216.53;5014418;28;20452;-75
2022/09/24 03:08:41;;;;;;;0.10;0.10;;;;;;;7.39;100.00;96209.69;5019724;28;20518;-75
2022/09/24 03:11:28;;;;;;;0.08;0.08;;;;;;;7.16;100.00;96207.03;5015635;28;20053;-75
2022/09/24 03:14:13;;;;;;;0.03;0.03;;;;;;;7.28;100.00;96205.19;5017265;28;20033;-75
2022/09/24 03:16:59;;;;;;;0.10;0.10;;;;;;;7.23;100.00;96210.38;5015654;28;20641;-75
2022/09/24 03:19:45;;;;;;;0.10;0.10;;;;;;;7.34;100.00;96209.59;5017174;28;20527;-75
2022/09/24 03:22:33;;;;;;;0.10;0.10;;;;;;;7.37;100.00;96208.28;5017304;28;20037;-75
2022/09/24 03:25:19;;;;;;;0.10;0.10;;;;;;;7.42;100.00;96206.56;5019983;28;20602;-75
2022/09/24 03:28:05;;;;;;;0.10;0.10;;;;;;;7.47;100.00;96203.19;5020682;28;20160;-75
2022/09/24 03:31:00;;;;;;;0.00;0.00;;;;;;;7.49;100.00;96217.09;5017446;28;20480;-75
2022/09/24 03:33:48;;;;;;;0.10;0.10;;;;;;;7.49;100.00;96214.41;5020069;28;20096;-75
2022/09/24 03:36:34;;;;;;;0.10;0.10;;;;;;;7.47;100.00;96220.00;5018811;28;20045;-74
2022/09/24 03:39:19;;;;;;;0.10;0.10;;;;;;;7.54;100.00;96222.50;5025818;28;20641;-75
2022/09/24 03:42:05;;;;;;;0.10;0.10;;;;;;;7.52;100.00;96221.94;5020937;28;20040;-75
2022/09/24 03:44:53;;;;;;;0.13;0.13;;;;;;;7.62;100.00;96218.66;5003017;28;20045;-75
2022/09/24 03:47:40;;;;;;;0.10;0.10;;;;;;;7.66;100.00;96211.84;5017616;28;20033;-75
2022/09/24 03:50:26;;;;;;;0.10;0.10;;;;;;;7.60;100.00;96210.09;5016300;28;21881;-75
2022/09/24 03:53:14;;;;;;;0.20;0.10;;;;;;;7.56;100.00;96211.63;5020005;28;20099;-75
2022/09/24 03:56:04;;;;;;;0.10;0.10;;;;;;;7.63;100.00;96214.97;5004321;28;20470;-75
2022/09/24 03:58:50;;;;;;;0.17;0.10;;;;;;;7.72;100.00;96206.38;5017850;28;20037;-75
2022/09/24 04:01:36;;;;;;;0.10;0.10;;;;;;;7.73;100.00;96208.00;5017325;28;20374;-75
2022/09/24 04:04:22;;;;;;;0.05;0.05;;;;;;;7.84;100.00;96203.66;5005763;28;20041;-75
2022/09/24 04:07:07;;;;;;;0.10;0.10;;;;;;;7.88;100.00;96202.16;5018729;28;20386;-75
2022/09/24 04:09:53;;;;;;;0.10;0.10;;;;;;;7.89;100.00;96195.78;5023610;28;20047;-75
2022/09/24 04:12:42;;;;;;;0.10;0.10;;;;;;;7.88;100.00;96198.69;5022191;28;20045;-75
2022/09/24 04:15:28;;;;;;;0.10;0.10;;;;;;;7.81;100.00;96193.50;5019427;28;20301;-75
2022/09/24 04:18:15;;;;;;;0.00;0.00;;;;;;;7.80;100.00;96194.53;5016666;28;20048;-75
2022/09/24 04:21:00;;;;;;;0.00;0.00;;;;;;;7.84;100.00;96198.34;5018184;28;20033;-75
2022/09/24 04:23:46;;;;;;;0.10;0.10;;;;;;;7.86;100.00;96196.25;5017114;28;20029;-75
2022/09/24 04:26:32;;;;;;;0.10;0.10;;;;;;;7.88;100.00;96191.50;5019435;28;20510;-75
2022/09/24 04:29:18;;;;;;;0.10;0.10;;;;;;;7.95;100.00;96199.34;5018650;28;20088;-75
2022/09/24 04:32:04;;;;;;;0.15;0.10;;;;;;;8.01;100.00;96204.50;5018504;28;20464;-75
2022/09/24 04:34:50;;;;;;;0.10;0.10;;;;;;;8.03;100.00;96201.63;5022537;28;20488;-75
2022/09/24 04:37:36;;;;;;;0.20;0.10;;;;;;;8.02;100.00;96200.03;5021145;28;20047;-75
2022/09/24 04:40:22;;;;;;;0.10;0.10;;;;;;;7.99;100.00;96198.63;5017374;28;20432;-76
2022/09/24 04:43:08;;;;;;;0.10;0.10;;;;;;;7.90;100.00;96202.72;5019859;28;20041;-75
2022/09/24 04:45:57;;;;;;;0.17;0.10;;;;;;;7.95;100.00;96194.03;5021773;28;20045;-75
2022/09/24 04:48:43;;;;;;;0.10;0.10;;;;;;;7.90;100.00;96199.25;5019483;28;20037;-75
2022/09/24 04:51:34;;;;;;;0.10;0.10;;;;;;;7.91;100.00;96193.69;5018199;28;20059;-75
2022/09/24 04:54:20;;;;;;;0.45;0.20;;;;;;;7.98;100.00;96186.34;5020474;28;20053;-75
2022/09/24 04:57:06;;;;;;;0.15;0.10;;;;;;;8.03;100.00;96185.66;5015330;28;20041;-75
2022/09/24 04:59:52;;;;;;;0.10;0.10;;;;;;;8.03;100.00;96186.47;5019341;28;20307;-76
2022/09/24 05:02:38;;;;;;;0.10;0.10;;;;;;;8.12;100.00;96184.22;5018194;28;20408;-76
2022/09/24 05:05:25;;;;;;;0.10;0.10;;;;;;;8.12;100.00;96183.41;5017437;28;20037;-76
2022/09/24 05:08:11;;;;;;;0.00;0.00;;;;;;;8.03;100.00;96170.47;5022366;28;20064;-76
2022/09/24 05:10:57;;;;;;;0.35;0.10;;;;;;;8.14;100.00;96167.97;5010075;28;20045;-76
2022/09/24 05:13:42;;;;;;;0.10;0.10;;;;;;;8.22;100.00;96172.91;5001025;28;20432;-76
2022/09/24 05:16:29;;;;;;;0.10;0.10;;;;;;;8.27;100.00;96168.50;4996909;28;20041;-75
2022/09/24 05:19:15;;;;;;;0.10;0.10;;;;;;;8.24;100.00;96171.63;4979076;28;20048;-76
2022/09/24 05:22:01;;;;;;;0.10;0.10;;;;;;;8.23;100.00;96166.53;4996497;28;20037;-76
2022/09/24 05:24:47;;;;;;;0.10;0.10;;;;;;;8.25;100.00;96172.41;4997648;28;20050;-75
2022/09/24 05:27:33;;;;;;;0.13;0.13;;;;;;;8.20;100.00;96169.69;4998492;28;20414;-75
2022/09/24 05:30:21;;;;;;;0.10;0.10;;;;;;;8.20;100.00;96175.81;4997273;28;20041;-76
2022/09/24 05:33:07;;;;;;;0.10;0.10;;;;;;;8.31;100.00;96174.94;4999641;28;20120;-76
2022/09/24 05:35:54;;;;;;;0.10;0.10;;;;;;;8.40;100.00;96186.03;4997228;28;20239;-76
2022/09/24 05:38:40;;;;;;;0.10;0.10;;;;;;;8.46;100.00;96182.41;4996540;28;20661;-76
2022/09/24 05:41:26;;;;;;;0.10;0.10;;;;;;;8.44;100.00;96187.19;4997854;28;20057;-76
2022/09/24 05:44:12;;;;;;;0.10;0.10;;;;;;;8.53;100.00;96190.28;4998679;28;20052;-76
2022/09/24 05:46:58;;;;;;;0.10;0.10;;;;;;;8.61;100.00;96189.88;4998170;28;20026;-76
2022/09/24 05:49:44;;;;;;;0.20;0.10;;;;;;;8.69;100.00;96184.13;4998697;28;20065;-76
2022/09/24 05:52:30;;;;;;;0.17;0.10;;;;;;;8.80;100.00;96191.25;4998549;28;20482;-76
2022/09/24 05:55:16;;;;;;;0.10;0.10;;;;;;;8.94;100.00;96191.72;4982408;28;20042;-76
2022/09/24 05:58:06;;;;;;;0.05;0.05;;;;;;;9.07;100.00;96195.91;4999008;28;20575;-76
2022/09/24 06:00:52;;;;;;;0.10;0.10;;;;;;;9.17;100.00;96193.38;4994053;28;20083;-76
2022/09/24 06:03:38;;;;;;;0.10;0.10;;;;;;;9.20;100.00;96191.03;4996964;28;20033;-76
2022/09/24 06:06:25;;;;;;;0.10;0.10;;;;;;;9.35;100.00;96187.78;4998098;28;20034;-76
2022/09/24 06:09:11;;;;;;;0.00;0.00;;;;;;;9.47;100.00;96192.97;4996020;28;20034;-76
2022/09/24 06:11:57;;;;;;;0.10;0.10;;;;;;;9.52;100.00;96194.94;5013017;28;20311;-76
2022/09/24 06:14:42;;;;;;;0.10;0.10;;;;;;;9.65;100.00;96192.69;5019438;28;20594;-76
2022/09/24 06:17:30;;;;;;;0.10;0.10;;;;;;;9.77;100.00;96193.38;5014893;28;20068;-76
2022/09/24 06:20:16;;;;;;;0.10;0.10;;;;;;;9.89;100.00;96195.91;5002149;28;20029;-76
2022/09/24 06:23:02;;;;;;;0.10;0.10;;;;;;;9.99;100.00;96193.34;5014129;28;20044;-76
2022/09/24 06:25:50;;;;;;;0.10;0.10;;;;;;;10.03;100.00;96199.78;5015190;28;20141;-76
2022/09/24 06:28:37;;;;;;;0.10;0.10;;;;;;;10.10;100.00;96196.94;5003045;28;20207;-76
2022/09/24 06:31:22;;;;;;;0.10;0.10;;;;;;;10.16;100.00;96193.25;5015701;28;20557;-76
2022/09/24 06:34:09;;;;;;;0.10;0.10;;;;;;;10.27;100.00;96195.03;5017360;28;20057;-76
2022/09/24 06:36:55;;;;;;;0.28;0.10;;;;;;;10.41;100.00;96198.06;5016603;28;20037;-76
2022/09/24 06:39:41;;;;;;;0.10;0.10;;;;;;;10.46;100.00;96200.81;5015987;28;20152;-76
2022/09/24 06:42:27;;;;;;;0.10;0.10;;;;;;;10.54;100.00;96199.53;5019922;28;20408;-76
2022/09/24 06:45:17;;;;;;;0.10;0.10;;;;;;;10.52;100.00;96199.78;5001377;28;20476;-76
2022/09/24 06:48:04;;;;;;;0.10;0.10;;;;;;;10.56;100.00;96205.44;5017550;28;20061;-76
2022/09/24 06:50:50;;;;;;;0.10;0.10;;;;;;;10.68;100.00;96203.41;5015424;28;20072;-76
2022/09/24 06:53:37;;;;;;;0.10;0.10;;;;;;;10.76;100.00;96202.13;5022592;28;20045;-76
2022/09/24 06:56:23;;;;;;;0.10;0.10;;;;;;;10.71;100.00;96199.41;5025745;28;20542;-76
2022/09/24 06:59:09;;;;;;;0.10;0.10;;;;;;;10.77;100.00;96196.53;5022845;28;20481;-76
2022/09/24 07:01:54;;;;;;;0.08;0.08;;;;;;;10.93;100.00;96196.63;5027027;28;20432;-76
2022/09/24 07:04:40;;;;;;;0.10;0.10;;;;;;;11.11;100.00;96199.69;5036824;28;20029;-76
2022/09/24 07:07:28;;;;;;;0.13;0.10;;;;;;;11.31;100.00;96199.03;5025513;28;21537;-76
2022/09/24 07:10:16;;;;;;;0.10;0.10;;;;;;;11.32;100.00;96189.94;5017914;28;20041;-76
2022/09/24 07:13:02;;;;;;;0.10;0.10;;;;;;;11.44;100.00;96193.22;5022386;28;20136;-76
2022/09/24 07:15:51;;;;;;;0.15;0.10;;;;;;;11.52;100.00;96191.13;5019296;28;20535;-76
2022/09/24 07:18:37;;;;;;;0.15;0.10;;;;;;;11.59;100.00;96189.78;5019681;28;20052;-76
2022/09/24 07:21:23;;;;;;;0.10;0.10;;;;;;;11.66;100.00;96193.03;5018625;28;20087;-76
2022/09/24 07:24:09;;;;;;;0.10;0.10;;;;;;;11.75;100.00;96193.38;5018648;28;20511;-76
2022/09/24 07:26:55;;;;;;;0.10;0.10;;;;;;;11.86;100.00;96192.34;5017401;28;20029;-76
2022/09/24 07:29:41;;;;;;;0.10;0.10;;;;;;;11.80;100.00;96195.25;5020959;28;20132;-76
2022/09/24 07:32:27;;;;;;;0.20;0.10;;;;;;;11.62;100.00;96197.31;5019075;28;20068;-76
2022/09/24 07:35:17;;;;;;;0.10;0.10;;;;;;;11.51;100.00;96197.53;5022515;28;20045;-76
2022/09/24 07:38:10;;;;;;;0.10;0.10;;;;;;;11.53;100.00;96195.41;5021517;28;20042;-76
2022/09/24 07:40:57;;;;;;;0.08;0.08;;;;;;;11.56;100.00;96200.22;5017439;28;20386;-76
2022/09/24 07:43:43;;;;;;;0.22;0.20;;;;;;;11.63;100.00;96201.63;5020937;28;20388;-76
2022/09/24 07:46:29;;;;;;;0.20;0.20;;;;;;;11.70;100.00;96206.75;5019171;28;20502;-76
2022/09/24 07:49:15;;;;;;;0.28;0.17;;;;;;;11.78;100.00;96216.97;5021781;28;20033;-76
2022/09/24 07:52:01;;;;;;;0.10;0.10;;;;;;;11.83;100.00;96208.97;5022413;28;20041;-76
2022/09/24 07:54:47;;;;;;;0.10;0.10;;;;;;;12.01;100.00;96209.56;5021744;28;20033;-76
2022/09/24 07:57:33;;;;;;;0.10;0.10;;;;;;;12.26;100.00;96209.63;5020969;28;20236;-77
2022/09/24 08:00:20;;;;;;;0.10;0.10;;;;;;;12.45;100.00;96212.63;5004243;28;20052;-76
2022/09/24 08:03:06;;;;;;;0.30;0.10;;;;;;;12.62;100.00;96213.19;5018214;28;20558;-76
2022/09/24 08:05:57;;;;;;;0.10;0.10;;;;;;;12.69;100.00;96199.53;5003786;28;20049;-76
2022/09/24 08:08:43;;;;;;;0.50;0.10;;;;;;;12.83;100.00;96205.94;5021094;28;20036;-76
2022/09/24 08:11:33;;;;;;;0.10;0.10;;;;;;;13.04;100.00;96196.81;5012824;28;20053;-76
2022/09/24 08:14:19;;;;;;;0.10;0.10;;;;;;;13.19;100.00;96206.75;5021247;28;20043;-76
2022/09/24 08:17:05;;;;;;;0.10;0.10;;;;;;;13.18;100.00;96207.00;5016676;28;20231;-76
2022/09/24 08:19:55;;;;;;;0.10;0.10;;;;;;;13.22;100.00;96208.91;5023512;28;20404;-76
2022/09/24 08:22:41;;;;;;;0.10;0.10;;;;;;;13.02;100.00;96209.72;5018018;28;20034;-76
2022/09/24 08:25:27;;;;;;;0.10;0.10;;;;;;;13.02;100.00;96212.41;5022363;28;20041;-76
2022/09/24 08:28:15;;;;;;;0.10;0.10;;;;;;;13.26;100.00;96211.88;5021899;28;20033;-76
2022/09/24 08:31:06;;;;;;;0.10;0.10;;;;;;;13.36;100.00;96209.16;5015578;28;20451;-76
2022/09/24 08:33:52;;;;;;;0.10;0.10;;;;;;;13.44;100.00;96207.78;5024028;28;20041;-76
2022/09/24 08:36:38;;;;;;;0.10;0.10;;;;;;;13.61;100.00;96205.59;5018392;28;20129;-76
2022/09/24 08:39:23;;;;;;;0.10;0.10;;;;;;;13.65;100.00;96201.28;5021294;28;20443;-76
2022/09/24 08:42:54;;;;;;;0.10;0.10;;;;;;;13.72;100.00;96204.50;5018343;28;20536;-76
2022/09/24 08:48:53;;;;;;;0.17;0.10;;;;;;;14.16;100.00;96193.81;5021800;28;20034;-76
2022/09/24 08:51:52;;;;;;;0.10;0.10;;;;;;;14.31;100.00;96197.50;5019037;28;20079;-76
2022/09/24 08:54:39;;;;;;;0.20;0.15;;;;;;;14.54;100.00;96198.72;5018193;28;20033;-76
2022/09/24 08:57:27;;;;;;;0.00;0.00;;;;;;;14.90;100.00;96202.78;5018465;28;20092;-76
2022/09/24 09:00:14;;;;;;;0.10;0.10;;;;;;;14.72;100.00;96200.78;4984447;28;20529;-76
2022/09/24 09:03:27;;;;;;;0.10;0.10;;;;;;;14.58;100.00;96203.28;5002943;28;20323;-76
2022/09/24 09:06:28;;;;;;;0.15;0.10;;;;;;;14.78;100.00;96194.25;5022860;28;20037;-77
2022/09/24 09:09:20;;;;;;;;;;;;;;;15.27;100.00;96199.50;5021621;28;20045;-76
2022/09/24 09:12:13;;;;;;;0.10;0.10;;;;;;;15.41;100.00;96196.09;5020113;28;20372;-76
2022/09/24 09:15:09;;;;;;;0.08;0.08;;;;;;;15.87;100.00;96199.13;5020212;28;20052;-76
2022/09/24 09:17:58;;;;;;;0.10;0.10;;;;;;;16.33;100.00;96198.56;5019094;28;20045;-76
2022/09/24 09:20:46;;;;;;;0.13;0.10;;;;;;;16.35;100.00;96199.88;5022007;28;20064;-77
2022/09/24 09:23:48;;;;;;;0.00;0.00;;;;;;;16.53;100.00;96200.19;5022258;28;20044;-76
2022/09/24 09:26:33;;;;;;;;;;;;;;;16.77;98.18;96200.13;5020222;28;20468;-76
2022/09/24 09:29:24;;;;;;;0.10;0.10;;;;;;;16.56;96.27;96196.88;5019546;28;19941;-76
2022/09/24 09:32:29;;;;;;;0.20;0.10;;;;;;;16.43;98.62;96193.03;5005107;28;20136;-76
2022/09/24 09:35:28;;;;;;;0.10;0.10;;;;;;;16.28;90.74;96204.84;5019860;28;20037;-77
2022/09/24 09:38:51;;;;;;;0.10;0.10;;;;;;;16.56;90.91;96200.38;5017997;28;20068;-77
2022/09/24 09:41:47;;;;;;;0.10;0.10;;;;;;;17.12;94.86;96196.84;5015648;28;20041;-77
2022/09/24 09:44:40;;;;;;;0.10;0.10;;;;;;;16.96;93.33;96203.59;5007002;28;20532;-77
2022/09/24 09:47:41;;;;;;;0.10;0.10;;;;;;;17.53;90.38;96202.34;5018722;28;21118;-77
2022/09/24 09:50:39;;;;;;;0.10;0.10;;;;;;;18.42;93.38;96200.31;5018839;28;20053;-77
2022/09/24 09:53:30;;;;;;;0.10;0.10;;;;;;;18.82;87.51;96198.63;5020570;28;20029;-77
2022/09/24 09:56:23;;;;;;;0.10;0.10;;;;;;;18.62;88.26;96199.88;5017635;28;20030;-77
2022/09/24 09:59:12;;;;;;;0.10;0.10;;;;;;;18.73;86.25;96198.56;4980367;28;20463;-77
2022/09/24 10:01:58;;;;;;;0.10;0.10;;;;;;;18.62;88.31;96206.09;5015812;28;20653;-77
2022/09/24 10:04:44;;;;;;;0.10;0.10;;;;;;;18.97;80.24;96205.59;5011732;28;20059;-77
2022/09/24 10:07:30;;;;;;;0.10;0.10;;;;;;;19.44;76.14;96198.72;5020452;28;20045;-77
2022/09/24 10:10:24;;;;;;;0.10;0.10;;;;;;;19.30;77.20;96200.69;5024223;28;20076;-77
2022/09/24 10:13:11;;;;;;;0.10;0.10;;;;;;;20.08;79.74;96198.34;5019036;28;20248;-77
2022/09/24 10:16:08;;;;;;;0.10;0.10;;;;;;;20.21;68.36;96192.81;5024897;28;20805;-77
2022/09/24 10:18:57;;;;;;;0.10;0.10;;;;;;;19.99;71.82;96190.97;5018738;28;20524;-77
2022/09/24 10:21:43;;;;;;;0.10;0.10;;;;;;;20.01;69.37;96193.41;5023555;28;20045;-77
2022/09/24 10:24:30;;;;;;;0.10;0.10;;;;;;;20.28;66.01;96185.00;5009033;28;20048;-77
2022/09/24 10:27:34;;;;;;;0.10;0.10;;;;;;;20.24;59.83;96186.75;5022389;28;20032;-77
2022/09/24 10:30:32;;;;;;;0.43;0.15;;;;;;;20.77;64.17;96184.91;5029597;28;20048;-77
2022/09/24 10:33:19;;;;;;;0.10;0.10;;;;;;;20.35;71.07;96184.53;5025275;28;20037;-77
2022/09/24 10:36:11;;;;;;;0.10;0.10;;;;;;;21.50;60.65;96182.28;5012042;28;20334;-77
2022/09/24 10:39:12;;;;;;;0.10;0.10;;;;;;;20.80;61.63;96185.06;5012534;28;20029;-76
2022/09/24 10:41:58;;;;;;;0.20;0.20;;;;;;;21.54;53.40;96183.22;5022257;28;20034;-77
2022/09/24 10:44:44;;;;;;;0.20;0.20;;;;;;;22.82;45.53;96169.22;5021657;28;20033;-77
2022/09/24 10:48:02;;;;;;;0.10;0.10;;;;;;;22.56;48.09;96177.56;5021625;28;20029;-77
2022/09/24 10:51:26;;;;;;;0.20;0.20;;;;;;;24.87;43.10;96170.13;5008819;28;20037;-77
2022/09/24 10:54:34;;;;;;;0.20;0.20;;;;;;;24.84;40.65;96168.88;5026712;28;20036;-77
2022/09/24 10:57:49;;;;;;;0.10;0.10;;;;;;;28.21;31.46;96157.63;5005255;28;20536;-77
2022/09/24 11:00:39;;;;;;;0.13;0.13;;;;;;;31.37;29.19;96151.97;5023591;28;20033;-78
2022/09/24 11:03:35;;;;;;;0.35;0.15;;;;;;;31.45;26.84;96159.88;5029399;28;20506;-78
2022/09/24 11:06:43;;;;;;;0.20;0.20;;;;;;;29.89;28.47;96162.50;5032067;28;20041;-78
2022/09/24 11:09:59;;;;;;;0.13;0.13;;;;;;;30.73;28.78;96158.78;5018379;28;20033;-78
2022/09/24 11:13:11;;;;;;;0.10;0.10;;;;;;;28.69;28.99;96154.41;5021007;28;20033;-77
2022/09/24 11:16:03;;;;;;;0.10;0.10;;;;;;;29.18;30.14;96150.69;5029268;28;20404;-77
2022/09/24 11:19:03;;;;;;;0.10;0.10;;;;;;;28.82;30.27;96147.50;5029921;28;20076;-78
2022/09/24 11:22:11;;;;;;;0.10;0.10;;;;;;;28.44;31.73;96146.59;5010943;28;20048;-77
2022/09/24 11:25:28;;;;;;;0.10;0.10;;;;;;;28.32;29.18;96146.81;5014424;28;20065;-77
2022/09/24 11:28:15;;;;;;;0.10;0.10;;;;;;;26.62;33.25;96143.28;5030236;28;20068;-77
2022/09/24 11:31:29;;;;;;;0.10;0.10;;;;;;;25.82;32.45;96144.53;5015073;28;20061;-77
2022/09/24 11:34:49;;;;;;;0.10;0.10;;;;;;;26.86;32.16;96136.72;5022753;28;20124;-77
2022/09/24 11:37:52;;;;;;;0.10;0.00;;;;;;;26.12;31.53;96141.34;5027907;28;20037;-77
2022/09/24 11:41:09;;;;;;;0.08;0.08;;;;;;;25.50;31.87;96146.44;5027891;28;20044;-77
2022/09/24 11:44:24;;;;;;;0.10;0.10;;;;;;;23.05;36.16;96134.22;5034720;28;20033;-77
2022/09/24 11:47:24;;;;;;;0.10;0.10;;;;;;;24.74;34.35;96137.31;5029146;28;20066;-77
2022/09/24 11:50:35;;;;;;;0.10;0.10;;;;;;;27.24;30.39;96126.09;5036190;28;20744;-77
2022/09/24 11:53:49;;;;;;;0.03;0.03;;;;;;;25.80;32.77;96132.34;5018187;28;20072;-77
2022/09/24 11:57:01;;;;;;;0.10;0.10;;;;;;;24.13;36.31;96134.72;5024194;28;20049;-77
2022/09/24 11:59:56;;;;;;;0.00;0.00;;;;;;;23.51;39.73;96130.34;5033212;28;20033;-77
2022/09/24 12:02:56;;;;;;;0.00;0.00;;;;;;;22.08;41.45;96132.53;5031019;28;20040;-76
2022/09/24 12:06:07;;;;;;;0.00;0.00;;;;;;;21.62;47.10;96138.81;5017530;28;20032;-77
2022/09/24 12:09:15;;;;;;;0.00;0.00;;;;;;;21.20;48.17;96133.19;5038012;28;20040;-77
2022/09/24 12:12:21;;;;;;;0.10;0.10;;;;;;;21.01;51.32;96136.28;5017209;28;20549;-77
2022/09/24 12:15:18;;;;;;;0.10;0.10;;;;;;;20.43;55.13;96132.09;5013813;28;20033;-77
2022/09/24 12:18:13;;;;;;;0.10;0.10;;;;;;;20.97;48.12;96132.59;5011502;28;20056;-77
2022/09/24 12:21:11;;;;;;;0.10;0.10;;;;;;;20.61;50.27;96127.50;5008219;28;20038;-77
2022/09/24 12:24:05;;;;;;;0.00;0.00;;;;;;;19.96;50.67;96126.47;4999707;28;20116;-77
2022/09/24 12:26:56;;;;;;;0.00;0.00;;;;;;;19.95;51.07;96115.91;4996691;28;20556;-77
2022/09/24 12:33:29;;;;;;;0.00;0.00;;;;;;;19.35;55.82;96121.91;5009840;28;20041;-77
2022/09/24 12:36:55;;;;;;;0.17;0.10;;;;;;;19.20;63.00;96131.25;5006137;28;20033;-77
2022/09/24 12:39:57;;;;;;;0.10;0.10;;;;;;;18.87;65.39;96128.03;4995583;28;20037;-76
2022/09/24 12:42:51;;;;;;;0.00;0.00;;;;;;;18.79;65.29;96126.06;4989162;28;20453;-77
2022/09/24 12:45:37;;;;;;;0.10;0.10;;;;;;;18.29;66.58;96126.94;5387546;22;20057;-76
2022/09/24 12:48:36;;;;;;;0.00;0.00;;;;;;;18.29;66.80;96128.84;4983488;28;20112;-77
2022/09/24 12:51:33;;;;;;;0.10;0.10;;;;;;;18.47;65.07;96117.03;4965123;28;20047;-77
2022/09/24 12:54:30;;;;;;;0.10;0.10;;;;;;;19.02;62.34;96110.56;4983554;28;20434;-77
2022/09/24 12:57:21;;;;;;;0.03;0.03;;;;;;;18.93;63.53;96105.13;4974935;28;20368;-77
2022/09/24 13:00:41;;;;;;;0.00;0.00;;;;;;;18.97;69.09;96110.69;4955131;28;20319;-77
2022/09/24 13:03:34;;;;;;;0.10;0.10;;;;;;;18.83;70.10;96108.06;4944899;28;20062;-77
2022/09/24 13:06:31;;;;;;;0.10;0.10;;;;;;;19.49;66.51;96099.00;4979585;28;20073;-76
2022/09/24 13:09:38;;;;;;;0.10;0.10;;;;;;;20.44;59.27;96108.47;4970148;28;20047;-76
2022/09/24 13:12:36;;;;;;;0.08;0.08;;;;;;;20.85;54.90;96113.41;4979661;28;20089;-78
2022/09/24 13:15:41;;;;;;;0.03;0.03;;;;;;;20.71;52.67;96119.03;4976909;28;20046;-78
2022/09/24 13:18:34;;;;;;;0.00;0.00;;;;;;;20.01;60.41;96117.38;4982612;28;20085;-78
2022/09/24 13:21:28;;;;;;;0.00;0.00;;;;;;;19.74;67.32;96115.69;4966905;28;20047;-78
2022/09/24 13:24:26;;;;;;;0.00;0.00;;;;;;;19.92;64.94;96111.09;4968281;28;20637;-77
2022/09/24 13:27:30;;;;;;;0.10;0.08;;;;;;;19.70;59.53;96115.53;4978425;28;20069;-77
2022/09/24 13:30:43;;;;;;;0.00;0.00;;;;;;;19.67;60.57;96108.00;4970225;28;20236;-77
2022/09/24 13:33:41;;;;;;;0.08;0.08;;;;;;;19.51;64.97;96109.53;4969363;28;20040;-77
2022/09/24 13:37:04;;;;;;;0.10;0.10;;;;;;;19.42;66.51;96106.78;4954559;28;20077;-77